Terminal Aerodrome Forecast
Issued by NWS Charleston, WV

Current Version | Previous Version | Text Only | Print | Product List | Glossary Off
Versions: 1 2 3 4 5 6 7 8 9 10 11 12 13 14 15 16 17 18 19 20 21 22 23 24 25 26 27 28

000
FTUS41 KRLX 221400 AAA
TAFEKN
TAF AMD
KEKN 221456Z 2215/2312 30003KT P6SM OVC015
     FM221900 27004KT 4SM +TSRA BR BKN020CB
     FM230100 00000KT 4SM BR BKN025
     FM230800 00000KT 2SM BR BKN010=

USA.gov is the U.S. government's official web portal to all federal, state and local government web resources and services.